sensor_id;sensor_type;location;lat;lon;timestamp;P1;durP1;ratioP1;P2;durP2;ratioP2
46308;SDS011;32037;50.820;6.494;2023-09-18T00:01:08;2.80;;;2.60;;
46308;SDS011;32037;50.820;6.494;2023-09-18T00:03:55;3.17;;;2.90;;
46308;SDS011;32037;50.820;6.494;2023-09-18T00:06:44;2.60;;;2.40;;
46308;SDS011;32037;50.820;6.494;2023-09-18T00:09:31;3.00;;;2.70;;
46308;SDS011;32037;50.820;6.494;2023-09-18T00:12:17;2.60;;;2.40;;
46308;SDS011;32037;50.820;6.494;2023-09-18T00:15:04;3.20;;;2.90;;
46308;SDS011;32037;50.820;6.494;2023-09-18T00:17:53;2.37;;;2.17;;
46308;SDS011;32037;50.820;6.494;2023-09-18T00:20:40;2.77;;;2.50;;
46308;SDS011;32037;50.820;6.494;2023-09-18T00:23:28;3.10;;;2.40;;
46308;SDS011;32037;50.820;6.494;2023-09-18T00:26:16;2.50;;;2.30;;
46308;SDS011;32037;50.820;6.494;2023-09-18T00:29:08;2.20;;;2.00;;
46308;SDS011;32037;50.820;6.494;2023-09-18T00:31:55;3.07;;;2.30;;
46308;SDS011;32037;50.820;6.494;2023-09-18T00:34:42;2.53;;;2.30;;
46308;SDS011;32037;50.820;6.494;2023-09-18T00:37:28;2.60;;;2.40;;
46308;SDS011;32037;50.820;6.494;2023-09-18T00:40:18;2.63;;;2.43;;
46308;SDS011;32037;50.820;6.494;2023-09-18T00:43:05;2.70;;;2.50;;
46308;SDS011;32037;50.820;6.494;2023-09-18T00:45:52;4.30;;;2.70;;
46308;SDS011;32037;50.820;6.494;2023-09-18T00:48:39;3.63;;;2.67;;
46308;SDS011;32037;50.820;6.494;2023-09-18T00:51:26;2.30;;;2.10;;
46308;SDS011;32037;50.820;6.494;2023-09-18T00:54:13;2.63;;;2.40;;
46308;SDS011;32037;50.820;6.494;2023-09-18T00:57:04;2.70;;;2.40;;
46308;SDS011;32037;50.820;6.494;2023-09-18T00:59:51;2.63;;;2.43;;
46308;SDS011;32037;50.820;6.494;2023-09-18T01:02:38;3.27;;;2.73;;
46308;SDS011;32037;50.820;6.494;2023-09-18T01:05:26;3.40;;;2.37;;
46308;SDS011;32037;50.820;6.494;2023-09-18T01:08:12;2.50;;;2.30;;
46308;SDS011;32037;50.820;6.494;2023-09-18T01:11:01;4.80;;;2.57;;
46308;SDS011;32037;50.820;6.494;2023-09-18T01:13:58;4.30;;;2.53;;
46308;SDS011;32037;50.820;6.494;2023-09-18T01:16:50;3.47;;;2.90;;
46308;SDS011;32037;50.820;6.494;2023-09-18T01:19:41;2.57;;;2.37;;
46308;SDS011;32037;50.820;6.494;2023-09-18T01:22:31;5.40;;;2.63;;
46308;SDS011;32037;50.820;6.494;2023-09-18T01:25:18;3.30;;;2.60;;
46308;SDS011;32037;50.820;6.494;2023-09-18T01:28:05;2.80;;;2.60;;
46308;SDS011;32037;50.820;6.494;2023-09-18T01:30:52;2.50;;;2.20;;
46308;SDS011;32037;50.820;6.494;2023-09-18T01:33:39;2.60;;;2.40;;
46308;SDS011;32037;50.820;6.494;2023-09-18T01:36:26;5.90;;;2.43;;
46308;SDS011;32037;50.820;6.494;2023-09-18T01:39:14;2.73;;;2.43;;
46308;SDS011;32037;50.820;6.494;2023-09-18T01:42:03;3.50;;;2.37;;
46308;SDS011;32037;50.820;6.494;2023-09-18T01:44:52;2.67;;;2.47;;
46308;SDS011;32037;50.820;6.494;2023-09-18T01:47:39;3.07;;;2.40;;
46308;SDS011;32037;50.820;6.494;2023-09-18T01:50:26;2.57;;;2.37;;
46308;SDS011;32037;50.820;6.494;2023-09-18T01:53:13;2.47;;;2.20;;
46308;SDS011;32037;50.820;6.494;2023-09-18T01:56:01;2.40;;;2.23;;
46308;SDS011;32037;50.820;6.494;2023-09-18T01:58:49;5.60;;;2.53;;
46308;SDS011;32037;50.820;6.494;2023-09-18T02:01:36;2.33;;;2.13;;
46308;SDS011;32037;50.820;6.494;2023-09-18T02:04:24;2.77;;;2.57;;
46308;SDS011;32037;50.820;6.494;2023-09-18T02:07:31;3.23;;;2.37;;
46308;SDS011;32037;50.820;6.494;2023-09-18T02:10:19;3.77;;;2.70;;
46308;SDS011;32037;50.820;6.494;2023-09-18T02:13:07;3.43;;;2.67;;
46308;SDS011;32037;50.820;6.494;2023-09-18T02:15:55;3.77;;;2.90;;
46308;SDS011;32037;50.820;6.494;2023-09-18T02:18:42;6.20;;;3.00;;
46308;SDS011;32037;50.820;6.494;2023-09-18T02:21:29;4.30;;;3.47;;
46308;SDS011;32037;50.820;6.494;2023-09-18T02:24:16;4.00;;;2.63;;
46308;SDS011;32037;50.820;6.494;2023-09-18T02:27:04;4.93;;;2.60;;
46308;SDS011;32037;50.820;6.494;2023-09-18T02:29:52;2.97;;;2.60;;
46308;SDS011;32037;50.820;6.494;2023-09-18T02:32:39;2.90;;;2.57;;
46308;SDS011;32037;50.820;6.494;2023-09-18T02:35:26;4.00;;;2.67;;
46308;SDS011;32037;50.820;6.494;2023-09-18T02:38:12;3.67;;;3.37;;
46308;SDS011;32037;50.820;6.494;2023-09-18T02:40:59;3.70;;;2.77;;
46308;SDS011;32037;50.820;6.494;2023-09-18T02:43:46;5.10;;;2.80;;
46308;SDS011;32037;50.820;6.494;2023-09-18T02:46:36;2.80;;;2.40;;
46308;SDS011;32037;50.820;6.494;2023-09-18T02:49:23;3.63;;;2.90;;
46308;SDS011;32037;50.820;6.494;2023-09-18T02:52:09;2.80;;;2.60;;
46308;SDS011;32037;50.820;6.494;2023-09-18T02:54:56;3.30;;;2.60;;
46308;SDS011;32037;50.820;6.494;2023-09-18T02:57:43;4.17;;;2.40;;
46308;SDS011;32037;50.820;6.494;2023-09-18T03:00:29;3.47;;;2.47;;
46308;SDS011;32037;50.820;6.494;2023-09-18T03:03:30;2.83;;;1.97;;
46308;SDS011;32037;50.820;6.494;2023-09-18T03:06:17;2.87;;;2.50;;
46308;SDS011;32037;50.820;6.494;2023-09-18T03:09:04;2.77;;;2.30;;
46308;SDS011;32037;50.820;6.494;2023-09-18T03:11:51;2.73;;;2.53;;
46308;SDS011;32037;50.820;6.494;2023-09-18T03:14:38;3.60;;;2.83;;
46308;SDS011;32037;50.820;6.494;2023-09-18T03:17:25;2.70;;;2.50;;
46308;SDS011;32037;50.820;6.494;2023-09-18T03:20:13;4.20;;;2.83;;
46308;SDS011;32037;50.820;6.494;2023-09-18T03:23:01;3.00;;;2.33;;
46308;SDS011;32037;50.820;6.494;2023-09-18T03:25:48;2.90;;;2.43;;
46308;SDS011;32037;50.820;6.494;2023-09-18T03:28:37;2.90;;;2.40;;
46308;SDS011;32037;50.820;6.494;2023-09-18T03:31:24;3.20;;;2.90;;
46308;SDS011;32037;50.820;6.494;2023-09-18T03:34:11;3.03;;;2.73;;
46308;SDS011;32037;50.820;6.494;2023-09-18T03:36:59;3.33;;;2.10;;
46308;SDS011;32037;50.820;6.494;2023-09-18T03:39:45;3.30;;;2.57;;
46308;SDS011;32037;50.820;6.494;2023-09-18T03:42:33;3.00;;;2.40;;
46308;SDS011;32037;50.820;6.494;2023-09-18T03:45:19;3.30;;;2.53;;
46308;SDS011;32037;50.820;6.494;2023-09-18T03:48:07;2.50;;;2.30;;
46308;SDS011;32037;50.820;6.494;2023-09-18T03:50:54;2.53;;;2.33;;
46308;SDS011;32037;50.820;6.494;2023-09-18T03:53:41;2.90;;;2.10;;
46308;SDS011;32037;50.820;6.494;2023-09-18T03:56:28;3.70;;;2.40;;
46308;SDS011;32037;50.820;6.494;2023-09-18T03:59:15;2.40;;;2.07;;
46308;SDS011;32037;50.820;6.494;2023-09-18T04:02:03;3.40;;;2.23;;
46308;SDS011;32037;50.820;6.494;2023-09-18T04:04:50;4.50;;;2.33;;
46308;SDS011;32037;50.820;6.494;2023-09-18T04:07:37;2.90;;;2.00;;
46308;SDS011;32037;50.820;6.494;2023-09-18T04:10:25;3.63;;;2.70;;
46308;SDS011;32037;50.820;6.494;2023-09-18T04:13:12;4.00;;;2.50;;
46308;SDS011;32037;50.820;6.494;2023-09-18T04:15:59;3.83;;;2.07;;
46308;SDS011;32037;50.820;6.494;2023-09-18T04:18:46;5.30;;;2.20;;
46308;SDS011;32037;50.820;6.494;2023-09-18T04:21:32;4.13;;;2.37;;
46308;SDS011;32037;50.820;6.494;2023-09-18T04:24:19;4.00;;;2.47;;
46308;SDS011;32037;50.820;6.494;2023-09-18T04:27:08;4.03;;;2.40;;
46308;SDS011;32037;50.820;6.494;2023-09-18T04:29:54;2.50;;;2.30;;
46308;SDS011;32037;50.820;6.494;2023-09-18T04:32:41;2.43;;;1.83;;
46308;SDS011;32037;50.820;6.494;2023-09-18T04:35:29;3.37;;;2.00;;
46308;SDS011;32037;50.820;6.494;2023-09-18T04:38:16;3.00;;;1.90;;
46308;SDS011;32037;50.820;6.494;2023-09-18T04:41:05;2.33;;;1.67;;
46308;SDS011;32037;50.820;6.494;2023-09-18T04:43:53;3.73;;;2.20;;
46308;SDS011;32037;50.820;6.494;2023-09-18T04:46:40;2.20;;;2.00;;
46308;SDS011;32037;50.820;6.494;2023-09-18T04:49:29;3.17;;;2.03;;
46308;SDS011;32037;50.820;6.494;2023-09-18T04:52:16;2.07;;;1.57;;
46308;SDS011;32037;50.820;6.494;2023-09-18T04:55:02;2.50;;;1.93;;
46308;SDS011;32037;50.820;6.494;2023-09-18T04:57:51;3.93;;;2.30;;
46308;SDS011;32037;50.820;6.494;2023-09-18T05:00:39;1.70;;;1.50;;
46308;SDS011;32037;50.820;6.494;2023-09-18T05:03:27;6.13;;;2.47;;
46308;SDS011;32037;50.820;6.494;2023-09-18T05:06:15;2.33;;;2.13;;
46308;SDS011;32037;50.820;6.494;2023-09-18T05:09:02;1.93;;;1.73;;
46308;SDS011;32037;50.820;6.494;2023-09-18T05:11:50;3.00;;;2.27;;
46308;SDS011;32037;50.820;6.494;2023-09-18T05:14:36;3.00;;;2.23;;
46308;SDS011;32037;50.820;6.494;2023-09-18T05:17:38;2.47;;;1.90;;
46308;SDS011;32037;50.820;6.494;2023-09-18T05:20:27;6.07;;;1.90;;
46308;SDS011;32037;50.820;6.494;2023-09-18T05:23:16;2.40;;;2.00;;
46308;SDS011;32037;50.820;6.494;2023-09-18T05:26:03;2.90;;;2.03;;
46308;SDS011;32037;50.820;6.494;2023-09-18T05:28:50;2.20;;;1.80;;
46308;SDS011;32037;50.820;6.494;2023-09-18T05:31:39;8.00;;;2.40;;
46308;SDS011;32037;50.820;6.494;2023-09-18T05:34:27;2.30;;;1.70;;
46308;SDS011;32037;50.820;6.494;2023-09-18T05:37:13;2.33;;;1.67;;
46308;SDS011;32037;50.820;6.494;2023-09-18T05:40:00;2.73;;;1.73;;
46308;SDS011;32037;50.820;6.494;2023-09-18T05:42:49;1.70;;;1.33;;
46308;SDS011;32037;50.820;6.494;2023-09-18T05:45:35;5.93;;;1.80;;
46308;SDS011;32037;50.820;6.494;2023-09-18T05:48:22;2.60;;;1.87;;
46308;SDS011;32037;50.820;6.494;2023-09-18T05:51:11;1.67;;;1.37;;
46308;SDS011;32037;50.820;6.494;2023-09-18T05:53:57;2.47;;;1.70;;
46308;SDS011;32037;50.820;6.494;2023-09-18T05:56:44;2.80;;;2.27;;
46308;SDS011;32037;50.820;6.494;2023-09-18T05:59:31;2.10;;;1.90;;
46308;SDS011;32037;50.820;6.494;2023-09-18T06:02:17;4.10;;;2.20;;
46308;SDS011;32037;50.820;6.494;2023-09-18T06:05:06;2.87;;;2.40;;
46308;SDS011;32037;50.820;6.494;2023-09-18T06:07:58;2.50;;;2.30;;
46308;SDS011;32037;50.820;6.494;2023-09-18T06:10:45;3.83;;;2.50;;
46308;SDS011;32037;50.820;6.494;2023-09-18T06:13:31;3.23;;;1.80;;
46308;SDS011;32037;50.820;6.494;2023-09-18T06:16:19;2.43;;;2.10;;
46308;SDS011;32037;50.820;6.494;2023-09-18T06:19:05;2.60;;;1.90;;
46308;SDS011;32037;50.820;6.494;2023-09-18T06:21:52;3.40;;;1.97;;
46308;SDS011;32037;50.820;6.494;2023-09-18T06:24:40;2.10;;;1.77;;
46308;SDS011;32037;50.820;6.494;2023-09-18T06:27:28;2.20;;;1.70;;
46308;SDS011;32037;50.820;6.494;2023-09-18T06:30:15;3.00;;;2.10;;
46308;SDS011;32037;50.820;6.494;2023-09-18T06:33:01;3.17;;;1.80;;
46308;SDS011;32037;50.820;6.494;2023-09-18T06:35:50;2.23;;;1.90;;
46308;SDS011;32037;50.820;6.494;2023-09-18T06:38:37;2.47;;;1.57;;
46308;SDS011;32037;50.820;6.494;2023-09-18T06:41:26;2.00;;;1.50;;
46308;SDS011;32037;50.820;6.494;2023-09-18T06:44:13;2.60;;;1.80;;
46308;SDS011;32037;50.820;6.494;2023-09-18T06:47:00;4.07;;;1.77;;
46308;SDS011;32037;50.820;6.494;2023-09-18T06:49:47;3.50;;;1.80;;
46308;SDS011;32037;50.820;6.494;2023-09-18T06:52:33;2.60;;;2.30;;
46308;SDS011;32037;50.820;6.494;2023-09-18T06:55:20;2.20;;;1.90;;
46308;SDS011;32037;50.820;6.494;2023-09-18T06:58:08;3.80;;;2.03;;
46308;SDS011;32037;50.820;6.494;2023-09-18T07:00:55;2.17;;;1.70;;
46308;SDS011;32037;50.820;6.494;2023-09-18T07:03:43;2.43;;;1.60;;
46308;SDS011;32037;50.820;6.494;2023-09-18T07:06:32;1.70;;;1.60;;
46308;SDS011;32037;50.820;6.494;2023-09-18T07:09:18;1.57;;;1.43;;
46308;SDS011;32037;50.820;6.494;2023-09-18T07:12:08;1.90;;;1.50;;
46308;SDS011;32037;50.820;6.494;2023-09-18T07:14:56;3.13;;;1.60;;
46308;SDS011;32037;50.820;6.494;2023-09-18T07:17:44;2.57;;;1.93;;
46308;SDS011;32037;50.820;6.494;2023-09-18T07:20:31;2.60;;;1.83;;
46308;SDS011;32037;50.820;6.494;2023-09-18T07:23:17;3.07;;;2.00;;
46308;SDS011;32037;50.820;6.494;2023-09-18T07:26:04;2.27;;;1.97;;
46308;SDS011;32037;50.820;6.494;2023-09-18T07:28:51;3.33;;;1.77;;
46308;SDS011;32037;50.820;6.494;2023-09-18T07:31:41;3.00;;;1.77;;
46308;SDS011;32037;50.820;6.494;2023-09-18T07:34:28;2.30;;;1.57;;
46308;SDS011;32037;50.820;6.494;2023-09-18T07:37:14;2.70;;;1.70;;
46308;SDS011;32037;50.820;6.494;2023-09-18T07:40:06;3.33;;;2.20;;
46308;SDS011;32037;50.820;6.494;2023-09-18T07:42:53;2.40;;;2.00;;
46308;SDS011;32037;50.820;6.494;2023-09-18T07:45:40;2.20;;;2.00;;
46308;SDS011;32037;50.820;6.494;2023-09-18T07:48:28;2.27;;;1.80;;
46308;SDS011;32037;50.820;6.494;2023-09-18T07:51:15;2.50;;;1.50;;
46308;SDS011;32037;50.820;6.494;2023-09-18T07:54:02;3.63;;;1.90;;
46308;SDS011;32037;50.820;6.494;2023-09-18T07:56:48;2.73;;;1.60;;
46308;SDS011;32037;50.820;6.494;2023-09-18T07:59:35;4.10;;;1.90;;
46308;SDS011;32037;50.820;6.494;2023-09-18T08:02:24;2.50;;;2.00;;
46308;SDS011;32037;50.820;6.494;2023-09-18T08:05:15;2.30;;;1.60;;
46308;SDS011;32037;50.820;6.494;2023-09-18T08:08:03;1.83;;;1.70;;
46308;SDS011;32037;50.820;6.494;2023-09-18T08:10:51;2.13;;;1.47;;
46308;SDS011;32037;50.820;6.494;2023-09-18T08:13:37;3.30;;;1.60;;
46308;SDS011;32037;50.820;6.494;2023-09-18T08:16:24;2.47;;;1.70;;
46308;SDS011;32037;50.820;6.494;2023-09-18T08:19:14;2.07;;;1.63;;
46308;SDS011;32037;50.820;6.494;2023-09-18T08:22:03;2.13;;;1.87;;
46308;SDS011;32037;50.820;6.494;2023-09-18T08:24:50;2.50;;;1.73;;
46308;SDS011;32037;50.820;6.494;2023-09-18T08:27:37;3.07;;;1.70;;
46308;SDS011;32037;50.820;6.494;2023-09-18T08:30:28;2.00;;;1.80;;
46308;SDS011;32037;50.820;6.494;2023-09-18T08:33:14;2.00;;;1.30;;
46308;SDS011;32037;50.820;6.494;2023-09-18T08:36:01;1.80;;;1.67;;
46308;SDS011;32037;50.820;6.494;2023-09-18T08:38:49;2.10;;;1.70;;
46308;SDS011;32037;50.820;6.494;2023-09-18T08:41:37;2.67;;;1.60;;
46308;SDS011;32037;50.820;6.494;2023-09-18T08:44:27;1.60;;;1.40;;
46308;SDS011;32037;50.820;6.494;2023-09-18T08:47:14;2.67;;;1.90;;
46308;SDS011;32037;50.820;6.494;2023-09-18T08:50:01;3.40;;;2.37;;
46308;SDS011;32037;50.820;6.494;2023-09-18T08:52:48;2.43;;;1.90;;
46308;SDS011;32037;50.820;6.494;2023-09-18T08:55:37;2.70;;;1.73;;
46308;SDS011;32037;50.820;6.494;2023-09-18T08:58:23;2.53;;;1.33;;
46308;SDS011;32037;50.820;6.494;2023-09-18T09:01:11;2.60;;;2.10;;
46308;SDS011;32037;50.820;6.494;2023-09-18T09:03:59;2.10;;;1.73;;
46308;SDS011;32037;50.820;6.494;2023-09-18T09:06:46;1.70;;;1.60;;
46308;SDS011;32037;50.820;6.494;2023-09-18T09:09:34;4.43;;;1.90;;
46308;SDS011;32037;50.820;6.494;2023-09-18T09:15:42;2.37;;;1.53;;
46308;SDS011;32037;50.820;6.494;2023-09-18T09:18:31;1.93;;;1.30;;
46308;SDS011;32037;50.820;6.494;2023-09-18T09:21:21;2.30;;;1.33;;
46308;SDS011;32037;50.820;6.494;2023-09-18T09:24:07;2.30;;;1.80;;
46308;SDS011;32037;50.820;6.494;2023-09-18T09:26:58;1.87;;;1.40;;
46308;SDS011;32037;50.820;6.494;2023-09-18T09:29:58;1.73;;;1.33;;
46308;SDS011;32037;50.820;6.494;2023-09-18T09:32:47;1.57;;;1.40;;
46308;SDS011;32037;50.820;6.494;2023-09-18T09:35:36;2.67;;;2.13;;
46308;SDS011;32037;50.820;6.494;2023-09-18T09:38:27;2.20;;;1.67;;
46308;SDS011;32037;50.820;6.494;2023-09-18T09:41:16;2.93;;;1.80;;
46308;SDS011;32037;50.820;6.494;2023-09-18T09:44:04;3.03;;;1.77;;
46308;SDS011;32037;50.820;6.494;2023-09-18T09:46:53;3.07;;;1.60;;
46308;SDS011;32037;50.820;6.494;2023-09-18T09:49:44;2.73;;;1.40;;
46308;SDS011;32037;50.820;6.494;2023-09-18T09:52:32;1.90;;;1.50;;
46308;SDS011;32037;50.820;6.494;2023-09-18T09:55:23;1.67;;;1.40;;
46308;SDS011;32037;50.820;6.494;2023-09-18T09:58:12;1.50;;;1.40;;
46308;SDS011;32037;50.820;6.494;2023-09-18T10:01:02;2.23;;;1.70;;
46308;SDS011;32037;50.820;6.494;2023-09-18T10:03:55;2.30;;;1.80;;
46308;SDS011;32037;50.820;6.494;2023-09-18T10:06:43;2.57;;;1.40;;
46308;SDS011;32037;50.820;6.494;2023-09-18T10:09:31;2.47;;;1.57;;
46308;SDS011;32037;50.820;6.494;2023-09-18T10:12:21;2.53;;;1.70;;
46308;SDS011;32037;50.820;6.494;2023-09-18T10:15:09;2.20;;;1.67;;
46308;SDS011;32037;50.820;6.494;2023-09-18T10:18:00;2.10;;;1.60;;
46308;SDS011;32037;50.820;6.494;2023-09-18T10:20:51;1.93;;;1.67;;
46308;SDS011;32037;50.820;6.494;2023-09-18T10:23:51;2.00;;;1.80;;
46308;SDS011;32037;50.820;6.494;2023-09-18T10:26:47;2.10;;;1.63;;
46308;SDS011;32037;50.820;6.494;2023-09-18T10:29:37;3.07;;;1.60;;
46308;SDS011;32037;50.820;6.494;2023-09-18T10:32:24;1.90;;;1.80;;
46308;SDS011;32037;50.820;6.494;2023-09-18T10:35:14;2.00;;;1.70;;
46308;SDS011;32037;50.820;6.494;2023-09-18T10:38:04;2.07;;;1.60;;
46308;SDS011;32037;50.820;6.494;2023-09-18T10:40:52;2.10;;;1.37;;
46308;SDS011;32037;50.820;6.494;2023-09-18T10:43:40;2.20;;;1.57;;
46308;SDS011;32037;50.820;6.494;2023-09-18T10:46:27;1.70;;;1.53;;
46308;SDS011;32037;50.820;6.494;2023-09-18T10:49:14;1.90;;;1.57;;
46308;SDS011;32037;50.820;6.494;2023-09-18T10:52:01;2.20;;;1.70;;
46308;SDS011;32037;50.820;6.494;2023-09-18T10:54:50;3.30;;;1.27;;
46308;SDS011;32037;50.820;6.494;2023-09-18T10:57:37;6.90;;;1.67;;
46308;SDS011;32037;50.820;6.494;2023-09-18T11:00:24;2.27;;;1.60;;
46308;SDS011;32037;50.820;6.494;2023-09-18T11:03:13;3.50;;;1.70;;
46308;SDS011;32037;50.820;6.494;2023-09-18T11:06:04;1.60;;;1.33;;
46308;SDS011;32037;50.820;6.494;2023-09-18T11:08:58;2.27;;;1.33;;
46308;SDS011;32037;50.820;6.494;2023-09-18T11:11:47;2.07;;;1.63;;
46308;SDS011;32037;50.820;6.494;2023-09-18T11:14:42;3.40;;;2.00;;
46308;SDS011;32037;50.820;6.494;2023-09-18T11:17:36;2.17;;;1.80;;
46308;SDS011;32037;50.820;6.494;2023-09-18T11:20:23;1.80;;;1.40;;
46308;SDS011;32037;50.820;6.494;2023-09-18T11:23:16;2.30;;;2.10;;
46308;SDS011;32037;50.820;6.494;2023-09-18T11:26:04;1.97;;;1.67;;
46308;SDS011;32037;50.820;6.494;2023-09-18T11:28:54;2.47;;;1.70;;
46308;SDS011;32037;50.820;6.494;2023-09-18T11:31:43;1.70;;;1.57;;
46308;SDS011;32037;50.820;6.494;2023-09-18T11:34:30;1.90;;;1.70;;
46308;SDS011;32037;50.820;6.494;2023-09-18T11:37:20;2.50;;;1.50;;
46308;SDS011;32037;50.820;6.494;2023-09-18T11:40:07;2.23;;;1.60;;
46308;SDS011;32037;50.820;6.494;2023-09-18T11:43:21;1.80;;;1.53;;
46308;SDS011;32037;50.820;6.494;2023-09-18T11:46:11;2.90;;;1.60;;
46308;SDS011;32037;50.820;6.494;2023-09-18T11:49:05;2.20;;;1.77;;
46308;SDS011;32037;50.820;6.494;2023-09-18T11:51:54;1.67;;;1.57;;
46308;SDS011;32037;50.820;6.494;2023-09-18T11:54:44;1.93;;;1.40;;
46308;SDS011;32037;50.820;6.494;2023-09-18T11:57:34;1.87;;;1.60;;
46308;SDS011;32037;50.820;6.494;2023-09-18T12:00:22;2.20;;;1.40;;
46308;SDS011;32037;50.820;6.494;2023-09-18T12:03:17;3.50;;;1.73;;
46308;SDS011;32037;50.820;6.494;2023-09-18T12:06:10;1.97;;;1.77;;
46308;SDS011;32037;50.820;6.494;2023-09-18T12:08:58;2.50;;;1.53;;
46308;SDS011;32037;50.820;6.494;2023-09-18T12:11:45;2.27;;;1.80;;
46308;SDS011;32037;50.820;6.494;2023-09-18T12:14:34;2.47;;;2.00;;
46308;SDS011;32037;50.820;6.494;2023-09-18T12:17:21;2.23;;;1.47;;
46308;SDS011;32037;50.820;6.494;2023-09-18T12:20:15;2.87;;;1.80;;
46308;SDS011;32037;50.820;6.494;2023-09-18T12:23:04;1.77;;;1.40;;
46308;SDS011;32037;50.820;6.494;2023-09-18T12:25:57;2.07;;;1.80;;
46308;SDS011;32037;50.820;6.494;2023-09-18T12:28:45;3.60;;;1.57;;
46308;SDS011;32037;50.820;6.494;2023-09-18T12:31:32;1.77;;;1.57;;
46308;SDS011;32037;50.820;6.494;2023-09-18T12:34:20;2.50;;;1.70;;
46308;SDS011;32037;50.820;6.494;2023-09-18T12:37:09;2.20;;;1.60;;
46308;SDS011;32037;50.820;6.494;2023-09-18T12:39:59;4.50;;;1.77;;
46308;SDS011;32037;50.820;6.494;2023-09-18T12:42:46;2.77;;;1.90;;
46308;SDS011;32037;50.820;6.494;2023-09-18T12:45:33;1.80;;;1.53;;
46308;SDS011;32037;50.820;6.494;2023-09-18T12:48:21;1.63;;;1.40;;
46308;SDS011;32037;50.820;6.494;2023-09-18T12:51:07;2.20;;;1.53;;
46308;SDS011;32037;50.820;6.494;2023-09-18T12:54:00;1.87;;;1.50;;
46308;SDS011;32037;50.820;6.494;2023-09-18T12:56:52;1.80;;;1.53;;
46308;SDS011;32037;50.820;6.494;2023-09-18T12:59:38;2.07;;;1.87;;
46308;SDS011;32037;50.820;6.494;2023-09-18T13:02:25;2.00;;;1.70;;
46308;SDS011;32037;50.820;6.494;2023-09-18T13:05:18;1.60;;;1.50;;
46308;SDS011;32037;50.820;6.494;2023-09-18T13:08:06;3.07;;;1.77;;
46308;SDS011;32037;50.820;6.494;2023-09-18T13:10:54;2.20;;;1.57;;
46308;SDS011;32037;50.820;6.494;2023-09-18T13:13:41;2.97;;;1.97;;
46308;SDS011;32037;50.820;6.494;2023-09-18T13:16:29;1.80;;;1.63;;
46308;SDS011;32037;50.820;6.494;2023-09-18T13:19:16;1.97;;;1.70;;
46308;SDS011;32037;50.820;6.494;2023-09-18T13:22:04;2.23;;;1.77;;
46308;SDS011;32037;50.820;6.494;2023-09-18T13:24:55;2.83;;;1.50;;
46308;SDS011;32037;50.820;6.494;2023-09-18T13:27:44;1.37;;;1.10;;
46308;SDS011;32037;50.820;6.494;2023-09-18T13:30:30;1.70;;;1.50;;
46308;SDS011;32037;50.820;6.494;2023-09-18T13:33:19;1.90;;;1.67;;
46308;SDS011;32037;50.820;6.494;2023-09-18T13:36:07;1.60;;;1.50;;
46308;SDS011;32037;50.820;6.494;2023-09-18T13:38:54;2.23;;;1.57;;
46308;SDS011;32037;50.820;6.494;2023-09-18T13:41:41;4.23;;;1.50;;
46308;SDS011;32037;50.820;6.494;2023-09-18T13:44:29;1.50;;;1.40;;
46308;SDS011;32037;50.820;6.494;2023-09-18T13:47:16;1.50;;;1.40;;
46308;SDS011;32037;50.820;6.494;2023-09-18T13:50:03;1.87;;;1.20;;
46308;SDS011;32037;50.820;6.494;2023-09-18T13:52:52;1.63;;;1.40;;
46308;SDS011;32037;50.820;6.494;2023-09-18T13:55:39;4.20;;;1.27;;
46308;SDS011;32037;50.820;6.494;2023-09-18T13:58:26;2.67;;;2.00;;
46308;SDS011;32037;50.820;6.494;2023-09-18T14:01:15;2.27;;;1.77;;
46308;SDS011;32037;50.820;6.494;2023-09-18T14:04:02;1.60;;;1.40;;
46308;SDS011;32037;50.820;6.494;2023-09-18T14:06:49;1.77;;;1.60;;
46308;SDS011;32037;50.820;6.494;2023-09-18T14:09:36;2.00;;;1.50;;
46308;SDS011;32037;50.820;6.494;2023-09-18T14:12:22;2.40;;;1.80;;
46308;SDS011;32037;50.820;6.494;2023-09-18T14:15:10;3.10;;;2.03;;
46308;SDS011;32037;50.820;6.494;2023-09-18T14:17:58;2.00;;;1.60;;
46308;SDS011;32037;50.820;6.494;2023-09-18T14:20:46;2.30;;;2.03;;
46308;SDS011;32037;50.820;6.494;2023-09-18T14:23:32;2.67;;;1.77;;
46308;SDS011;32037;50.820;6.494;2023-09-18T14:26:20;1.77;;;1.53;;
46308;SDS011;32037;50.820;6.494;2023-09-18T14:29:07;2.27;;;1.50;;
46308;SDS011;32037;50.820;6.494;2023-09-18T14:31:54;1.70;;;1.60;;
46308;SDS011;32037;50.820;6.494;2023-09-18T14:34:44;1.80;;;1.70;;
46308;SDS011;32037;50.820;6.494;2023-09-18T14:37:30;1.97;;;1.60;;
46308;SDS011;32037;50.820;6.494;2023-09-18T14:40:17;1.57;;;1.37;;
46308;SDS011;32037;50.820;6.494;2023-09-18T14:43:05;1.90;;;1.30;;
46308;SDS011;32037;50.820;6.494;2023-09-18T14:45:52;2.20;;;1.80;;
46308;SDS011;32037;50.820;6.494;2023-09-18T14:48:40;2.90;;;1.80;;
46308;SDS011;32037;50.820;6.494;2023-09-18T14:51:28;1.60;;;1.43;;
46308;SDS011;32037;50.820;6.494;2023-09-18T14:54:15;2.40;;;1.60;;
46308;SDS011;32037;50.820;6.494;2023-09-18T14:57:02;2.53;;;1.53;;
46308;SDS011;32037;50.820;6.494;2023-09-18T14:59:48;2.10;;;1.60;;
46308;SDS011;32037;50.820;6.494;2023-09-18T15:02:35;1.70;;;1.60;;
46308;SDS011;32037;50.820;6.494;2023-09-18T15:05:22;1.80;;;1.60;;
46308;SDS011;32037;50.820;6.494;2023-09-18T15:08:10;2.00;;;1.70;;
46308;SDS011;32037;50.820;6.494;2023-09-18T15:10:57;2.93;;;1.80;;
46308;SDS011;32037;50.820;6.494;2023-09-18T15:13:43;3.50;;;3.20;;
46308;SDS011;32037;50.820;6.494;2023-09-18T15:16:30;2.30;;;1.70;;
46308;SDS011;32037;50.820;6.494;2023-09-18T15:19:17;2.83;;;1.90;;
46308;SDS011;32037;50.820;6.494;2023-09-18T15:22:05;2.43;;;1.53;;
46308;SDS011;32037;50.820;6.494;2023-09-18T15:24:53;2.40;;;2.20;;
46308;SDS011;32037;50.820;6.494;2023-09-18T15:27:44;3.30;;;2.10;;
46308;SDS011;32037;50.820;6.494;2023-09-18T15:30:31;1.57;;;1.47;;
46308;SDS011;32037;50.820;6.494;2023-09-18T15:33:21;3.50;;;1.93;;
46308;SDS011;32037;50.820;6.494;2023-09-18T15:36:08;2.17;;;1.80;;
46308;SDS011;32037;50.820;6.494;2023-09-18T15:38:55;2.13;;;1.53;;
46308;SDS011;32037;50.820;6.494;2023-09-18T15:41:43;2.30;;;1.63;;
46308;SDS011;32037;50.820;6.494;2023-09-18T15:44:29;1.60;;;1.33;;
46308;SDS011;32037;50.820;6.494;2023-09-18T15:47:16;2.13;;;1.60;;
46308;SDS011;32037;50.820;6.494;2023-09-18T15:50:03;2.00;;;1.60;;
46308;SDS011;32037;50.820;6.494;2023-09-18T15:52:51;1.90;;;1.67;;
46308;SDS011;32037;50.820;6.494;2023-09-18T15:55:37;2.37;;;1.87;;
46308;SDS011;32037;50.820;6.494;2023-09-18T15:58:25;2.80;;;2.00;;
46308;SDS011;32037;50.820;6.494;2023-09-18T16:01:12;2.70;;;2.23;;
46308;SDS011;32037;50.820;6.494;2023-09-18T16:04:00;1.97;;;1.77;;
46308;SDS011;32037;50.820;6.494;2023-09-18T16:06:47;2.23;;;1.70;;
46308;SDS011;32037;50.820;6.494;2023-09-18T16:09:34;3.93;;;1.70;;
46308;SDS011;32037;50.820;6.494;2023-09-18T16:12:21;2.03;;;1.60;;
46308;SDS011;32037;50.820;6.494;2023-09-18T16:15:09;2.30;;;2.10;;
46308;SDS011;32037;50.820;6.494;2023-09-18T16:17:56;3.37;;;1.90;;
46308;SDS011;32037;50.820;6.494;2023-09-18T16:20:43;2.93;;;2.50;;
46308;SDS011;32037;50.820;6.494;2023-09-18T16:23:29;3.10;;;2.50;;
46308;SDS011;32037;50.820;6.494;2023-09-18T16:26:16;2.90;;;1.97;;
46308;SDS011;32037;50.820;6.494;2023-09-18T16:29:03;2.10;;;1.90;;
46308;SDS011;32037;50.820;6.494;2023-09-18T16:31:52;1.90;;;1.63;;
46308;SDS011;32037;50.820;6.494;2023-09-18T16:34:38;2.57;;;1.70;;
46308;SDS011;32037;50.820;6.494;2023-09-18T16:37:26;1.63;;;1.53;;
46308;SDS011;32037;50.820;6.494;2023-09-18T16:40:13;2.47;;;1.70;;
46308;SDS011;32037;50.820;6.494;2023-09-18T16:42:59;3.03;;;2.23;;
46308;SDS011;32037;50.820;6.494;2023-09-18T16:45:46;2.43;;;1.80;;
46308;SDS011;32037;50.820;6.494;2023-09-18T16:48:35;3.43;;;1.80;;
46308;SDS011;32037;50.820;6.494;2023-09-18T16:51:22;2.53;;;1.87;;
46308;SDS011;32037;50.820;6.494;2023-09-18T16:54:08;2.20;;;2.00;;
46308;SDS011;32037;50.820;6.494;2023-09-18T16:57:00;2.10;;;1.70;;